Terminal Aerodrome Forecast
Issued by NWS Cleveland, OH

Home | Current Version | Previous Version | Graphics & Text | Print | Product List | Glossary On
Versions: 1 2 3 4 5 6 7 8 9 10 11 12 13 14 15
000
FTUS41 KCLE 080523
TAFCAK
TAF
KCAK 080523Z 0806/0906 25011KT P6SM SCT025 BKN100
      TEMPO 0809/0813 BKN025
     FM081300 26012G18KT P6SM BKN030
     FM081800 27016G28KT P6SM OVC035
     FM090000 27012G20KT P6SM -SHSN OVC025=

USA.gov is the U.S. government's official web portal to all federal, state and local government web resources and services.